sensor_id;sensor_type;location;lat;lon;timestamp;temperature;humidity
78767;SHT31;68092;51.982;5.680;2023-04-15T00:01:30;12.2;49.2
78767;SHT31;68092;51.982;5.680;2023-04-15T00:04:03;12.2;49.3
78767;SHT31;68092;51.982;5.680;2023-04-15T00:06:35;12.1;49.5
78767;SHT31;68092;51.982;5.680;2023-04-15T00:09:08;12.1;49.6
78767;SHT31;68092;51.982;5.680;2023-04-15T00:11:39;12.1;49.6
78767;SHT31;68092;51.982;5.680;2023-04-15T00:14:08;12.1;49.3
78767;SHT31;68092;51.982;5.680;2023-04-15T00:16:38;12.1;49.3
78767;SHT31;68092;51.982;5.680;2023-04-15T00:19:10;12.1;49.6
78767;SHT31;68092;51.982;5.680;2023-04-15T00:21:39;12.1;49.4
78767;SHT31;68092;51.982;5.680;2023-04-15T00:24:09;12.0;49.9
78767;SHT31;68092;51.982;5.680;2023-04-15T00:26:38;12.0;49.3
78767;SHT31;68092;51.982;5.680;2023-04-15T00:29:09;12.0;49.3
78767;SHT31;68092;51.982;5.680;2023-04-15T00:31:38;12.0;49.6
78767;SHT31;68092;51.982;5.680;2023-04-15T00:34:08;11.9;49.7
78767;SHT31;68092;51.982;5.680;2023-04-15T00:36:38;11.9;49.9
78767;SHT31;68092;51.982;5.680;2023-04-15T00:39:08;11.9;49.5
78767;SHT31;68092;51.982;5.680;2023-04-15T00:41:37;11.9;50.5
78767;SHT31;68092;51.982;5.680;2023-04-15T00:44:07;11.9;49.7
78767;SHT31;68092;51.982;5.680;2023-04-15T00:46:38;11.9;50.0
78767;SHT31;68092;51.982;5.680;2023-04-15T00:49:09;11.9;50.5
78767;SHT31;68092;51.982;5.680;2023-04-15T00:51:39;11.8;50.1
78767;SHT31;68092;51.982;5.680;2023-04-15T00:54:09;11.8;50.6
78767;SHT31;68092;51.982;5.680;2023-04-15T00:56:39;11.8;50.4
78767;SHT31;68092;51.982;5.680;2023-04-15T00:59:09;11.8;50.9
78767;SHT31;68092;51.982;5.680;2023-04-15T01:01:39;11.8;50.5
78767;SHT31;68092;51.982;5.680;2023-04-15T01:04:11;11.8;51.0
78767;SHT31;68092;51.982;5.680;2023-04-15T01:06:41;11.7;50.8
78767;SHT31;68092;51.982;5.680;2023-04-15T01:09:11;11.7;50.5
78767;SHT31;68092;51.982;5.680;2023-04-15T01:11:41;11.7;50.8
78767;SHT31;68092;51.982;5.680;2023-04-15T01:14:12;11.7;50.9
78767;SHT31;68092;51.982;5.680;2023-04-15T01:16:42;11.7;50.7
78767;SHT31;68092;51.982;5.680;2023-04-15T01:19:13;11.6;50.8
78767;SHT31;68092;51.982;5.680;2023-04-15T01:21:45;11.6;51.0
78767;SHT31;68092;51.982;5.680;2023-04-15T01:24:17;11.6;50.6
78767;SHT31;68092;51.982;5.680;2023-04-15T01:26:50;11.6;50.8
78767;SHT31;68092;51.982;5.680;2023-04-15T01:29:20;11.5;51.0
78767;SHT31;68092;51.982;5.680;2023-04-15T01:31:51;11.5;51.0
78767;SHT31;68092;51.982;5.680;2023-04-15T01:34:21;11.5;50.7
78767;SHT31;68092;51.982;5.680;2023-04-15T01:36:51;11.5;51.0
78767;SHT31;68092;51.982;5.680;2023-04-15T01:39:20;11.4;51.2
78767;SHT31;68092;51.982;5.680;2023-04-15T01:41:50;11.4;51.2
78767;SHT31;68092;51.982;5.680;2023-04-15T01:44:20;11.4;51.3
78767;SHT31;68092;51.982;5.680;2023-04-15T01:46:51;11.4;51.4
78767;SHT31;68092;51.982;5.680;2023-04-15T01:49:24;11.4;51.8
78767;SHT31;68092;51.982;5.680;2023-04-15T01:51:54;11.3;51.6
78767;SHT31;68092;51.982;5.680;2023-04-15T01:54:25;11.3;51.7
78767;SHT31;68092;51.982;5.680;2023-04-15T01:56:55;11.3;51.4
78767;SHT31;68092;51.982;5.680;2023-04-15T01:59:25;11.3;51.5
78767;SHT31;68092;51.982;5.680;2023-04-15T02:01:55;11.2;51.8
78767;SHT31;68092;51.982;5.680;2023-04-15T02:04:25;11.2;52.0
78767;SHT31;68092;51.982;5.680;2023-04-15T02:06:54;11.2;51.6
78767;SHT31;68092;51.982;5.680;2023-04-15T02:09:24;11.2;51.9
78767;SHT31;68092;51.982;5.680;2023-04-15T02:11:55;11.1;52.1
78767;SHT31;68092;51.982;5.680;2023-04-15T02:14:25;11.1;52.1
78767;SHT31;68092;51.982;5.680;2023-04-15T02:16:54;11.1;51.9
78767;SHT31;68092;51.982;5.680;2023-04-15T02:19:24;11.1;52.2
78767;SHT31;68092;51.982;5.680;2023-04-15T02:21:53;11.0;51.8
78767;SHT31;68092;51.982;5.680;2023-04-15T02:24:23;11.0;52.3
78767;SHT31;68092;51.982;5.680;2023-04-15T02:26:52;11.0;52.6
78767;SHT31;68092;51.982;5.680;2023-04-15T02:29:22;11.0;53.0
78767;SHT31;68092;51.982;5.680;2023-04-15T02:31:52;10.9;52.7
78767;SHT31;68092;51.982;5.680;2023-04-15T02:34:24;10.9;53.2
78767;SHT31;68092;51.982;5.680;2023-04-15T02:36:53;10.9;53.3
78767;SHT31;68092;51.982;5.680;2023-04-15T02:39:26;10.9;53.3
78767;SHT31;68092;51.982;5.680;2023-04-15T02:41:55;10.9;53.3
78767;SHT31;68092;51.982;5.680;2023-04-15T02:44:27;10.9;52.9
78767;SHT31;68092;51.982;5.680;2023-04-15T02:46:58;10.8;53.3
78767;SHT31;68092;51.982;5.680;2023-04-15T02:49:29;10.8;53.5
78767;SHT31;68092;51.982;5.680;2023-04-15T02:51:59;10.8;53.6
78767;SHT31;68092;51.982;5.680;2023-04-15T02:54:29;10.8;53.7
78767;SHT31;68092;51.982;5.680;2023-04-15T02:57:00;10.8;53.7
78767;SHT31;68092;51.982;5.680;2023-04-15T02:59:32;10.7;53.3
78767;SHT31;68092;51.982;5.680;2023-04-15T03:02:02;10.7;53.9
78767;SHT31;68092;51.982;5.680;2023-04-15T03:04:34;10.7;53.8
78767;SHT31;68092;51.982;5.680;2023-04-15T03:07:05;10.7;54.0
78767;SHT31;68092;51.982;5.680;2023-04-15T03:09:35;10.6;53.9
78767;SHT31;68092;51.982;5.680;2023-04-15T03:12:07;10.6;54.2
78767;SHT31;68092;51.982;5.680;2023-04-15T03:14:37;10.6;54.5
78767;SHT31;68092;51.982;5.680;2023-04-15T03:17:07;10.6;54.5
78767;SHT31;68092;51.982;5.680;2023-04-15T03:19:36;10.6;54.5
78767;SHT31;68092;51.982;5.680;2023-04-15T03:22:06;10.5;54.4
78767;SHT31;68092;51.982;5.680;2023-04-15T03:24:35;10.5;54.7
78767;SHT31;68092;51.982;5.680;2023-04-15T03:27:09;10.5;54.6
78767;SHT31;68092;51.982;5.680;2023-04-15T03:29:39;10.5;54.5
78767;SHT31;68092;51.982;5.680;2023-04-15T03:32:09;10.5;55.2
78767;SHT31;68092;51.982;5.680;2023-04-15T03:34:39;10.4;55.0
78767;SHT31;68092;51.982;5.680;2023-04-15T03:37:09;10.4;55.2
78767;SHT31;68092;51.982;5.680;2023-04-15T03:39:39;10.4;55.3
78767;SHT31;68092;51.982;5.680;2023-04-15T03:42:08;10.4;55.3
78767;SHT31;68092;51.982;5.680;2023-04-15T03:44:38;10.4;55.2
78767;SHT31;68092;51.982;5.680;2023-04-15T03:47:09;10.4;55.5
78767;SHT31;68092;51.982;5.680;2023-04-15T03:49:38;10.3;55.5
78767;SHT31;68092;51.982;5.680;2023-04-15T03:52:08;10.3;55.5
78767;SHT31;68092;51.982;5.680;2023-04-15T03:54:38;10.3;55.9
78767;SHT31;68092;51.982;5.680;2023-04-15T03:57:07;10.3;55.9
78767;SHT31;68092;51.982;5.680;2023-04-15T03:59:37;10.3;56.1
78767;SHT31;68092;51.982;5.680;2023-04-15T04:02:07;10.2;56.2
78767;SHT31;68092;51.982;5.680;2023-04-15T04:04:37;10.2;55.6
78767;SHT31;68092;51.982;5.680;2023-04-15T04:07:08;10.2;56.4
78767;SHT31;68092;51.982;5.680;2023-04-15T04:09:43;10.2;56.5
78767;SHT31;68092;51.982;5.680;2023-04-15T04:12:13;10.2;56.1
78767;SHT31;68092;51.982;5.680;2023-04-15T04:14:42;10.2;56.4
78767;SHT31;68092;51.982;5.680;2023-04-15T04:17:12;10.2;56.0
78767;SHT31;68092;51.982;5.680;2023-04-15T04:19:42;10.1;56.8
78767;SHT31;68092;51.982;5.680;2023-04-15T04:22:11;10.1;56.7
78767;SHT31;68092;51.982;5.680;2023-04-15T04:24:41;10.1;57.1
78767;SHT31;68092;51.982;5.680;2023-04-15T04:27:10;10.1;56.7
78767;SHT31;68092;51.982;5.680;2023-04-15T04:29:40;10.1;56.5
78767;SHT31;68092;51.982;5.680;2023-04-15T04:32:10;10.1;57.1
78767;SHT31;68092;51.982;5.680;2023-04-15T04:34:40;10.1;56.6
78767;SHT31;68092;51.982;5.680;2023-04-15T04:37:10;10.1;56.7
78767;SHT31;68092;51.982;5.680;2023-04-15T04:39:39;10.1;57.1
78767;SHT31;68092;51.982;5.680;2023-04-15T04:42:09;10.0;57.0
78767;SHT31;68092;51.982;5.680;2023-04-15T04:44:38;10.0;57.2
78767;SHT31;68092;51.982;5.680;2023-04-15T04:47:08;10.0;57.3
78767;SHT31;68092;51.982;5.680;2023-04-15T04:49:39;10.0;57.1
78767;SHT31;68092;51.982;5.680;2023-04-15T04:52:09;10.0;57.6
78767;SHT31;68092;51.982;5.680;2023-04-15T04:54:39;10.0;57.5
78767;SHT31;68092;51.982;5.680;2023-04-15T04:57:09;10.0;57.7
78767;SHT31;68092;51.982;5.680;2023-04-15T04:59:40;9.9;57.3
78767;SHT31;68092;51.982;5.680;2023-04-15T05:02:10;9.9;57.8
78767;SHT31;68092;51.982;5.680;2023-04-15T05:04:39;9.9;58.2
78767;SHT31;68092;51.982;5.680;2023-04-15T05:07:10;9.9;58.3
78767;SHT31;68092;51.982;5.680;2023-04-15T05:09:41;9.9;58.3
78767;SHT31;68092;51.982;5.680;2023-04-15T05:12:13;9.9;58.3
78767;SHT31;68092;51.982;5.680;2023-04-15T05:14:44;9.9;58.5
78767;SHT31;68092;51.982;5.680;2023-04-15T05:17:14;9.9;58.5
78767;SHT31;68092;51.982;5.680;2023-04-15T05:19:44;9.9;58.4
78767;SHT31;68092;51.982;5.680;2023-04-15T05:22:13;9.9;58.4
78767;SHT31;68092;51.982;5.680;2023-04-15T05:24:43;9.9;58.6
78767;SHT31;68092;51.982;5.680;2023-04-15T05:27:13;9.9;59.0
78767;SHT31;68092;51.982;5.680;2023-04-15T05:29:42;9.9;58.6
78767;SHT31;68092;51.982;5.680;2023-04-15T05:32:12;9.9;59.0
78767;SHT31;68092;51.982;5.680;2023-04-15T05:34:42;9.9;59.3
78767;SHT31;68092;51.982;5.680;2023-04-15T05:37:14;9.9;59.2
78767;SHT31;68092;51.982;5.680;2023-04-15T05:39:44;9.9;59.7
78767;SHT31;68092;51.982;5.680;2023-04-15T05:42:13;9.9;59.3
78767;SHT31;68092;51.982;5.680;2023-04-15T05:44:43;9.9;59.6
78767;SHT31;68092;51.982;5.680;2023-04-15T05:47:13;9.9;59.7
78767;SHT31;68092;51.982;5.680;2023-04-15T05:49:43;9.9;59.6
78767;SHT31;68092;51.982;5.680;2023-04-15T05:52:12;10.0;60.6
78767;SHT31;68092;51.982;5.680;2023-04-15T05:54:43;10.0;59.8
78767;SHT31;68092;51.982;5.680;2023-04-15T05:57:13;10.0;60.5
78767;SHT31;68092;51.982;5.680;2023-04-15T05:59:43;10.0;60.7
78767;SHT31;68092;51.982;5.680;2023-04-15T06:02:17;10.1;60.9
78767;SHT31;68092;51.982;5.680;2023-04-15T06:04:46;10.1;61.2
78767;SHT31;68092;51.982;5.680;2023-04-15T06:07:17;10.1;60.9
78767;SHT31;68092;51.982;5.680;2023-04-15T06:09:46;10.1;61.2
78767;SHT31;68092;51.982;5.680;2023-04-15T06:12:17;10.2;61.9
78767;SHT31;68092;51.982;5.680;2023-04-15T06:14:47;10.2;61.5
78767;SHT31;68092;51.982;5.680;2023-04-15T06:17:17;10.3;60.8
78767;SHT31;68092;51.982;5.680;2023-04-15T06:19:47;10.3;61.0
78767;SHT31;68092;51.982;5.680;2023-04-15T06:22:23;10.4;61.9
78767;SHT31;68092;51.982;5.680;2023-04-15T06:24:53;10.4;62.2
78767;SHT31;68092;51.982;5.680;2023-04-15T06:27:23;10.5;61.4
78767;SHT31;68092;51.982;5.680;2023-04-15T06:29:52;10.5;61.0
78767;SHT31;68092;51.982;5.680;2023-04-15T06:32:22;10.6;61.3
78767;SHT31;68092;51.982;5.680;2023-04-15T06:34:52;10.6;61.3
78767;SHT31;68092;51.982;5.680;2023-04-15T06:37:21;10.7;60.9
78767;SHT31;68092;51.982;5.680;2023-04-15T06:39:51;10.7;60.7
78767;SHT31;68092;51.982;5.680;2023-04-15T06:42:21;10.8;61.0
78767;SHT31;68092;51.982;5.680;2023-04-15T06:44:51;10.9;60.5
78767;SHT31;68092;51.982;5.680;2023-04-15T06:47:21;10.9;60.5
78767;SHT31;68092;51.982;5.680;2023-04-15T06:49:51;11.0;60.6
78767;SHT31;68092;51.982;5.680;2023-04-15T06:52:20;11.1;60.6
78767;SHT31;68092;51.982;5.680;2023-04-15T06:54:50;11.2;60.2
78767;SHT31;68092;51.982;5.680;2023-04-15T06:57:19;11.2;60.2
78767;SHT31;68092;51.982;5.680;2023-04-15T06:59:49;11.3;60.7
78767;SHT31;68092;51.982;5.680;2023-04-15T07:02:21;11.4;60.2
78767;SHT31;68092;51.982;5.680;2023-04-15T07:04:51;11.4;60.3
78767;SHT31;68092;51.982;5.680;2023-04-15T07:07:20;11.5;59.3
78767;SHT31;68092;51.982;5.680;2023-04-15T07:09:50;11.5;59.5
78767;SHT31;68092;51.982;5.680;2023-04-15T07:12:20;11.6;59.5
78767;SHT31;68092;51.982;5.680;2023-04-15T07:14:50;11.6;58.5
78767;SHT31;68092;51.982;5.680;2023-04-15T07:17:20;11.7;58.9
78767;SHT31;68092;51.982;5.680;2023-04-15T07:19:49;11.7;57.7
78767;SHT31;68092;51.982;5.680;2023-04-15T07:22:19;11.8;58.1
78767;SHT31;68092;51.982;5.680;2023-04-15T07:24:48;11.9;57.3
78767;SHT31;68092;51.982;5.680;2023-04-15T07:27:18;11.9;57.1
78767;SHT31;68092;51.982;5.680;2023-04-15T07:29:48;11.9;56.7
78767;SHT31;68092;51.982;5.680;2023-04-15T07:32:18;12.0;56.5
78767;SHT31;68092;51.982;5.680;2023-04-15T07:34:48;12.1;56.1
78767;SHT31;68092;51.982;5.680;2023-04-15T07:37:18;12.1;56.6
78767;SHT31;68092;51.982;5.680;2023-04-15T07:39:47;12.1;55.0
78767;SHT31;68092;51.982;5.680;2023-04-15T07:42:17;12.2;54.9
78767;SHT31;68092;51.982;5.680;2023-04-15T07:44:46;12.2;55.4
78767;SHT31;68092;51.982;5.680;2023-04-15T07:47:16;12.3;55.7
78767;SHT31;68092;51.982;5.680;2023-04-15T07:49:46;12.3;56.0
78767;SHT31;68092;51.982;5.680;2023-04-15T07:52:18;12.4;55.1
78767;SHT31;68092;51.982;5.680;2023-04-15T07:54:47;12.4;54.0
78767;SHT31;68092;51.982;5.680;2023-04-15T07:57:19;12.5;53.7
78767;SHT31;68092;51.982;5.680;2023-04-15T07:59:49;12.6;54.4
78767;SHT31;68092;51.982;5.680;2023-04-15T08:02:19;12.6;54.7
78767;SHT31;68092;51.982;5.680;2023-04-15T08:04:51;12.7;53.8
78767;SHT31;68092;51.982;5.680;2023-04-15T08:07:21;12.8;53.6
78767;SHT31;68092;51.982;5.680;2023-04-15T08:09:50;12.8;54.1
78767;SHT31;68092;51.982;5.680;2023-04-15T08:12:20;12.9;53.5
78767;SHT31;68092;51.982;5.680;2023-04-15T08:14:51;12.9;53.7
78767;SHT31;68092;51.982;5.680;2023-04-15T08:17:20;13.0;53.2
78767;SHT31;68092;51.982;5.680;2023-04-15T08:19:50;13.1;53.0
78767;SHT31;68092;51.982;5.680;2023-04-15T08:22:20;13.1;52.7
78767;SHT31;68092;51.982;5.680;2023-04-15T08:24:50;13.1;53.0
78767;SHT31;68092;51.982;5.680;2023-04-15T08:27:20;13.2;53.4
78767;SHT31;68092;51.982;5.680;2023-04-15T08:29:52;13.3;53.0
78767;SHT31;68092;51.982;5.680;2023-04-15T08:32:21;13.4;52.8
78767;SHT31;68092;51.982;5.680;2023-04-15T08:34:53;13.5;52.3
78767;SHT31;68092;51.982;5.680;2023-04-15T08:37:23;13.5;52.1
78767;SHT31;68092;51.982;5.680;2023-04-15T08:39:53;13.6;52.7
78767;SHT31;68092;51.982;5.680;2023-04-15T08:42:29;13.7;52.0
78767;SHT31;68092;51.982;5.680;2023-04-15T08:45:03;13.8;52.0
78767;SHT31;68092;51.982;5.680;2023-04-15T08:47:35;13.9;52.1
78767;SHT31;68092;51.982;5.680;2023-04-15T08:50:09;13.9;52.2
78767;SHT31;68092;51.982;5.680;2023-04-15T08:52:39;14.0;51.0
78767;SHT31;68092;51.982;5.680;2023-04-15T08:55:11;14.1;51.1
78767;SHT31;68092;51.982;5.680;2023-04-15T08:57:42;14.2;51.0
78767;SHT31;68092;51.982;5.680;2023-04-15T09:00:13;14.3;51.2
78767;SHT31;68092;51.982;5.680;2023-04-15T09:02:44;14.4;49.9
78767;SHT31;68092;51.982;5.680;2023-04-15T09:05:15;14.5;49.7
78767;SHT31;68092;51.982;5.680;2023-04-15T09:07:46;14.6;49.6
78767;SHT31;68092;51.982;5.680;2023-04-15T09:10:16;14.6;48.9
78767;SHT31;68092;51.982;5.680;2023-04-15T09:12:46;14.7;49.3
78767;SHT31;68092;51.982;5.680;2023-04-15T09:15:17;14.8;48.8
78767;SHT31;68092;51.982;5.680;2023-04-15T09:17:46;14.9;49.5
78767;SHT31;68092;51.982;5.680;2023-04-15T09:20:18;15.0;47.8
78767;SHT31;68092;51.982;5.680;2023-04-15T09:22:49;15.1;47.5
78767;SHT31;68092;51.982;5.680;2023-04-15T09:25:28;15.2;49.8
78767;SHT31;68092;51.982;5.680;2023-04-15T09:28:02;15.3;48.7
78767;SHT31;68092;51.982;5.680;2023-04-15T09:30:32;15.4;47.3
78767;SHT31;68092;51.982;5.680;2023-04-15T09:33:03;15.5;47.3
78767;SHT31;68092;51.982;5.680;2023-04-15T09:35:35;15.6;46.5
78767;SHT31;68092;51.982;5.680;2023-04-15T09:38:07;15.7;45.5
78767;SHT31;68092;51.982;5.680;2023-04-15T09:40:40;15.8;45.8
78767;SHT31;68092;51.982;5.680;2023-04-15T09:43:10;15.9;45.1
78767;SHT31;68092;51.982;5.680;2023-04-15T09:45:47;16.0;43.9
78767;SHT31;68092;51.982;5.680;2023-04-15T09:48:21;16.1;44.1
78767;SHT31;68092;51.982;5.680;2023-04-15T09:51:00;16.2;43.6
78767;SHT31;68092;51.982;5.680;2023-04-15T09:53:36;16.4;44.7
78767;SHT31;68092;51.982;5.680;2023-04-15T09:56:08;16.5;45.2
78767;SHT31;68092;51.982;5.680;2023-04-15T09:58:38;16.7;44.6
78767;SHT31;68092;51.982;5.680;2023-04-15T10:01:09;16.8;44.3
78767;SHT31;68092;51.982;5.680;2023-04-15T10:03:40;17.0;43.5
78767;SHT31;68092;51.982;5.680;2023-04-15T10:06:10;17.1;43.7
78767;SHT31;68092;51.982;5.680;2023-04-15T10:08:43;17.2;44.4
78767;SHT31;68092;51.982;5.680;2023-04-15T10:11:16;17.4;42.4
78767;SHT31;68092;51.982;5.680;2023-04-15T10:13:46;17.5;41.9
78767;SHT31;68092;51.982;5.680;2023-04-15T10:16:19;17.6;42.4
78767;SHT31;68092;51.982;5.680;2023-04-15T10:18:54;17.7;43.0
78767;SHT31;68092;51.982;5.680;2023-04-15T10:21:26;17.9;42.6
78767;SHT31;68092;51.982;5.680;2023-04-15T10:24:02;18.0;41.5
78767;SHT31;68092;51.982;5.680;2023-04-15T10:26:34;18.2;40.7
78767;SHT31;68092;51.982;5.680;2023-04-15T10:29:04;18.3;41.0
78767;SHT31;68092;51.982;5.680;2023-04-15T10:31:35;18.4;42.0
78767;SHT31;68092;51.982;5.680;2023-04-15T10:34:06;18.5;41.7
78767;SHT31;68092;51.982;5.680;2023-04-15T10:36:37;18.5;41.5
78767;SHT31;68092;51.982;5.680;2023-04-15T10:42:09;18.7;40.8
78767;SHT31;68092;51.982;5.680;2023-04-15T10:44:42;18.8;40.3
78767;SHT31;68092;51.982;5.680;2023-04-15T10:47:13;18.8;39.5
78767;SHT31;68092;51.982;5.680;2023-04-15T10:49:47;18.9;39.7
78767;SHT31;68092;51.982;5.680;2023-04-15T10:52:22;18.9;40.7
78767;SHT31;68092;51.982;5.680;2023-04-15T10:55:04;19.0;40.6
78767;SHT31;68092;51.982;5.680;2023-04-15T10:57:39;19.1;39.5
78767;SHT31;68092;51.982;5.680;2023-04-15T11:00:15;19.1;42.2
78767;SHT31;68092;51.982;5.680;2023-04-15T11:02:55;19.2;39.8
78767;SHT31;68092;51.982;5.680;2023-04-15T11:06:36;19.3;38.5
78767;SHT31;68092;51.982;5.680;2023-04-15T11:09:31;19.4;39.2
78767;SHT31;68092;51.982;5.680;2023-04-15T11:12:08;19.4;37.3
78767;SHT31;68092;51.982;5.680;2023-04-15T11:14:40;19.5;37.7
78767;SHT31;68092;51.982;5.680;2023-04-15T11:17:12;19.5;38.4
78767;SHT31;68092;51.982;5.680;2023-04-15T11:19:42;19.6;38.8
78767;SHT31;68092;51.982;5.680;2023-04-15T11:22:14;19.6;39.2
78767;SHT31;68092;51.982;5.680;2023-04-15T11:24:48;19.7;38.8
78767;SHT31;68092;51.982;5.680;2023-04-15T11:27:22;19.7;38.7
78767;SHT31;68092;51.982;5.680;2023-04-15T11:29:52;19.8;39.9
78767;SHT31;68092;51.982;5.680;2023-04-15T11:32:22;19.8;40.0
78767;SHT31;68092;51.982;5.680;2023-04-15T11:34:52;19.9;39.2
78767;SHT31;68092;51.982;5.680;2023-04-15T11:37:31;20.0;37.8
78767;SHT31;68092;51.982;5.680;2023-04-15T11:40:01;20.0;38.8
78767;SHT31;68092;51.982;5.680;2023-04-15T11:42:31;20.1;38.4
78767;SHT31;68092;51.982;5.680;2023-04-15T11:45:07;20.1;38.7
78767;SHT31;68092;51.982;5.680;2023-04-15T11:47:39;20.2;37.6
78767;SHT31;68092;51.982;5.680;2023-04-15T11:50:19;20.3;39.0
78767;SHT31;68092;51.982;5.680;2023-04-15T11:52:56;20.4;38.9
78767;SHT31;68092;51.982;5.680;2023-04-15T11:55:26;20.5;37.5
78767;SHT31;68092;51.982;5.680;2023-04-15T11:58:14;20.7;38.5
78767;SHT31;68092;51.982;5.680;2023-04-15T12:00:50;20.9;39.0
78767;SHT31;68092;51.982;5.680;2023-04-15T12:03:25;21.1;36.7
78767;SHT31;68092;51.982;5.680;2023-04-15T12:06:10;21.2;36.4
78767;SHT31;68092;51.982;5.680;2023-04-15T12:09:02;21.3;34.5
78767;SHT31;68092;51.982;5.680;2023-04-15T12:11:35;21.4;35.0
78767;SHT31;68092;51.982;5.680;2023-04-15T12:14:10;21.4;35.6
78767;SHT31;68092;51.982;5.680;2023-04-15T12:16:43;21.4;35.8
78767;SHT31;68092;51.982;5.680;2023-04-15T12:19:15;21.6;35.3
78767;SHT31;68092;51.982;5.680;2023-04-15T12:21:47;21.8;34.2
78767;SHT31;68092;51.982;5.680;2023-04-15T12:24:20;21.9;35.0
78767;SHT31;68092;51.982;5.680;2023-04-15T12:26:51;22.1;33.7
78767;SHT31;68092;51.982;5.680;2023-04-15T12:29:25;22.2;33.4
78767;SHT31;68092;51.982;5.680;2023-04-15T12:31:57;22.3;32.9
78767;SHT31;68092;51.982;5.680;2023-04-15T12:34:30;22.3;33.5
78767;SHT31;68092;51.982;5.680;2023-04-15T12:37:03;22.4;32.9
78767;SHT31;68092;51.982;5.680;2023-04-15T12:39:35;22.4;32.3
78767;SHT31;68092;51.982;5.680;2023-04-15T12:42:06;22.3;33.0
78767;SHT31;68092;51.982;5.680;2023-04-15T12:44:37;22.3;33.5
78767;SHT31;68092;51.982;5.680;2023-04-15T12:47:08;22.2;33.9
78767;SHT31;68092;51.982;5.680;2023-04-15T12:49:41;22.2;32.7
78767;SHT31;68092;51.982;5.680;2023-04-15T12:52:10;22.3;33.9
78767;SHT31;68092;51.982;5.680;2023-04-15T12:54:42;22.3;33.1
78767;SHT31;68092;51.982;5.680;2023-04-15T12:57:12;22.4;33.3
78767;SHT31;68092;51.982;5.680;2023-04-15T12:59:43;22.4;33.5
78767;SHT31;68092;51.982;5.680;2023-04-15T13:02:12;22.3;33.5
78767;SHT31;68092;51.982;5.680;2023-04-15T13:04:42;22.3;32.7
78767;SHT31;68092;51.982;5.680;2023-04-15T13:07:12;22.3;32.4
78767;SHT31;68092;51.982;5.680;2023-04-15T13:09:42;22.3;33.0
78767;SHT31;68092;51.982;5.680;2023-04-15T13:12:13;22.2;32.6
78767;SHT31;68092;51.982;5.680;2023-04-15T13:14:42;22.2;32.6
78767;SHT31;68092;51.982;5.680;2023-04-15T13:17:14;22.2;32.9
78767;SHT31;68092;51.982;5.680;2023-04-15T13:19:46;22.1;33.3
78767;SHT31;68092;51.982;5.680;2023-04-15T13:22:17;22.0;33.9
78767;SHT31;68092;51.982;5.680;2023-04-15T13:24:46;22.0;33.4
78767;SHT31;68092;51.982;5.680;2023-04-15T13:27:17;21.9;32.4
78767;SHT31;68092;51.982;5.680;2023-04-15T13:29:48;21.8;32.4
78767;SHT31;68092;51.982;5.680;2023-04-15T13:32:18;21.7;32.8
78767;SHT31;68092;51.982;5.680;2023-04-15T13:34:47;21.6;34.5
78767;SHT31;68092;51.982;5.680;2023-04-15T13:37:21;21.5;33.9
78767;SHT31;68092;51.982;5.680;2023-04-15T13:39:55;21.4;34.7
78767;SHT31;68092;51.982;5.680;2023-04-15T13:42:25;21.3;34.5
78767;SHT31;68092;51.982;5.680;2023-04-15T13:44:55;21.2;35.2
78767;SHT31;68092;51.982;5.680;2023-04-15T13:47:25;21.1;35.2
78767;SHT31;68092;51.982;5.680;2023-04-15T13:49:55;21.1;34.5
78767;SHT31;68092;51.982;5.680;2023-04-15T13:52:24;21.0;34.9
78767;SHT31;68092;51.982;5.680;2023-04-15T13:54:54;20.9;36.2
78767;SHT31;68092;51.982;5.680;2023-04-15T13:57:24;20.9;35.0
78767;SHT31;68092;51.982;5.680;2023-04-15T13:59:54;20.9;34.7
78767;SHT31;68092;51.982;5.680;2023-04-15T14:02:24;20.8;34.8
78767;SHT31;68092;51.982;5.680;2023-04-15T14:04:53;20.8;35.5
78767;SHT31;68092;51.982;5.680;2023-04-15T14:07:23;20.7;35.8
78767;SHT31;68092;51.982;5.680;2023-04-15T14:09:54;20.6;35.2
78767;SHT31;68092;51.982;5.680;2023-04-15T14:12:26;20.5;36.3
78767;SHT31;68092;51.982;5.680;2023-04-15T14:14:56;20.4;35.9
78767;SHT31;68092;51.982;5.680;2023-04-15T14:17:26;20.3;36.4
78767;SHT31;68092;51.982;5.680;2023-04-15T14:19:55;20.1;37.2
78767;SHT31;68092;51.982;5.680;2023-04-15T14:22:25;20.0;38.0
78767;SHT31;68092;51.982;5.680;2023-04-15T14:24:54;19.9;37.5
78767;SHT31;68092;51.982;5.680;2023-04-15T14:27:24;19.8;37.6
78767;SHT31;68092;51.982;5.680;2023-04-15T14:29:54;19.7;37.6
78767;SHT31;68092;51.982;5.680;2023-04-15T14:32:27;19.6;37.9
78767;SHT31;68092;51.982;5.680;2023-04-15T14:34:56;19.5;38.5
78767;SHT31;68092;51.982;5.680;2023-04-15T14:37:26;19.5;38.4
78767;SHT31;68092;51.982;5.680;2023-04-15T14:39:55;19.4;39.3
78767;SHT31;68092;51.982;5.680;2023-04-15T14:42:25;19.3;39.0
78767;SHT31;68092;51.982;5.680;2023-04-15T14:44:55;19.2;39.1
78767;SHT31;68092;51.982;5.680;2023-04-15T14:47:24;19.1;39.8
78767;SHT31;68092;51.982;5.680;2023-04-15T14:49:56;19.0;39.8
78767;SHT31;68092;51.982;5.680;2023-04-15T14:52:26;18.9;40.0
78767;SHT31;68092;51.982;5.680;2023-04-15T14:54:55;18.8;40.0
78767;SHT31;68092;51.982;5.680;2023-04-15T14:57:25;18.6;40.3
78767;SHT31;68092;51.982;5.680;2023-04-15T14:59:54;18.5;40.6
78767;SHT31;68092;51.982;5.680;2023-04-15T15:02:25;18.4;40.6
78767;SHT31;68092;51.982;5.680;2023-04-15T15:04:56;18.3;40.6
78767;SHT31;68092;51.982;5.680;2023-04-15T15:07:27;18.1;41.4
78767;SHT31;68092;51.982;5.680;2023-04-15T15:09:59;18.0;41.6
78767;SHT31;68092;51.982;5.680;2023-04-15T15:12:29;17.9;41.9
78767;SHT31;68092;51.982;5.680;2023-04-15T15:14:59;17.7;42.2
78767;SHT31;68092;51.982;5.680;2023-04-15T15:17:29;17.6;43.1
78767;SHT31;68092;51.982;5.680;2023-04-15T15:20:01;17.5;42.9
78767;SHT31;68092;51.982;5.680;2023-04-15T15:22:30;17.5;43.3
78767;SHT31;68092;51.982;5.680;2023-04-15T15:25:00;17.4;43.7
78767;SHT31;68092;51.982;5.680;2023-04-15T15:27:30;17.3;43.9
78767;SHT31;68092;51.982;5.680;2023-04-15T15:30:00;17.3;43.9
78767;SHT31;68092;51.982;5.680;2023-04-15T15:32:29;17.2;43.7
78767;SHT31;68092;51.982;5.680;2023-04-15T15:35:01;17.1;43.9
78767;SHT31;68092;51.982;5.680;2023-04-15T15:37:32;17.0;44.1
78767;SHT31;68092;51.982;5.680;2023-04-15T15:40:03;16.9;44.6
78767;SHT31;68092;51.982;5.680;2023-04-15T15:42:33;16.9;44.3
78767;SHT31;68092;51.982;5.680;2023-04-15T15:45:04;16.8;44.5
78767;SHT31;68092;51.982;5.680;2023-04-15T15:47:35;16.7;44.4
78767;SHT31;68092;51.982;5.680;2023-04-15T15:50:07;16.7;44.7
78767;SHT31;68092;51.982;5.680;2023-04-15T15:52:36;16.6;44.7
78767;SHT31;68092;51.982;5.680;2023-04-15T15:55:07;16.5;45.2
78767;SHT31;68092;51.982;5.680;2023-04-15T15:57:38;16.4;45.8
78767;SHT31;68092;51.982;5.680;2023-04-15T16:00:09;16.3;45.6
78767;SHT31;68092;51.982;5.680;2023-04-15T16:02:39;16.3;45.3
78767;SHT31;68092;51.982;5.680;2023-04-15T16:05:09;16.2;45.2
78767;SHT31;68092;51.982;5.680;2023-04-15T16:07:39;16.1;46.3
78767;SHT31;68092;51.982;5.680;2023-04-15T16:10:12;16.0;45.8
78767;SHT31;68092;51.982;5.680;2023-04-15T16:12:43;16.0;45.7
78767;SHT31;68092;51.982;5.680;2023-04-15T16:15:13;15.9;45.9
78767;SHT31;68092;51.982;5.680;2023-04-15T16:17:43;15.8;46.4
78767;SHT31;68092;51.982;5.680;2023-04-15T16:20:12;15.8;46.7
78767;SHT31;68092;51.982;5.680;2023-04-15T16:22:42;15.7;47.0
78767;SHT31;68092;51.982;5.680;2023-04-15T16:25:14;15.6;47.5
78767;SHT31;68092;51.982;5.680;2023-04-15T16:27:44;15.5;47.9
78767;SHT31;68092;51.982;5.680;2023-04-15T16:30:14;15.5;47.7